Depok
Home > Kaskuser Regional > INDONESIA > JABAR, DKI & BANTEN > Depok > ▓▓▒▒ Radar Cuaca JABODETABEK dan Sekitarnya™ ▒▒▓▓
Total Views: 4268 Share : Facebook ShareFacebook Twitter ShareTwitter Google+ ShareGoogle+
Page 21 of 21 | ‹ First  < 16 17 18 19 20 21

dianabazz - 07/10/2012 09:16 AM
#401

▓▓▒▒ Radar Cuaca JABODETABEK dan Sekitarnya™ ▒▒▓▓
dianabazz - 08/10/2012 08:26 PM
#402

▓▓▒▒ Radar Cuaca JABODETABEK dan Sekitarnya™ ▒▒▓▓
dianabazz - 11/10/2012 03:20 PM
#403

▓▓▒▒ Radar Cuaca JABODETABEK dan Sekitarnya™ ▒▒▓▓
dianabazz - 11/10/2012 03:24 PM
#404

T A F O R



FTXX99 WIII 110500
TAF WIII 110500Z 1106/1212 03008KT 9000 FEW020CB SCT020 PROB30 TEMPO 1111/1113 5000 RA FEW020CB BKN020 BECMG 1111/1113 18007KT 8000 TEMPO 1121/1124 4000 HZ SCT020 BECMG 1200/1202 02008KT 9000=



Bingung cara bacanya???bingungs
klik aja Cara membaca TAFOR
atau menggunakan decoder diSINI
tapi jangan lupa untuk membuang "TAF" di awal dan "=" di akhir
dianabazz - 11/10/2012 03:29 PM
#405

▓▓▒▒ Radar Cuaca JABODETABEK dan Sekitarnya™ ▒▒▓▓
oedady - 11/10/2012 04:21 PM
#406

Quote:
Original Posted By dianabazz
▓▓▒▒ Radar Cuaca JABODETABEK dan Sekitarnya™ ▒▒▓▓


Mudah2an Nanti malam sampai depok tidak hujan #pray

Thanks infonya om kiss
dianabazz - 12/10/2012 10:43 AM
#407

▓▓▒▒ Radar Cuaca JABODETABEK dan Sekitarnya™ ▒▒▓▓
dianabazz - 13/10/2012 08:39 PM
#408

▓▓▒▒ Radar Cuaca JABODETABEK dan Sekitarnya™ ▒▒▓▓
dianabazz - 17/10/2012 10:09 AM
#409

▓▓▒▒ Radar Cuaca JABODETABEK dan Sekitarnya™ ▒▒▓▓
dianabazz - 17/10/2012 10:11 AM
#410

T A F O R



TAF WIII 162300Z 1700/1806 16005KT 6000 SCT020 BECMG 1704/1706 03010KT 9000=



Bingung cara bacanya???bingungs
klik aja Cara membaca TAFOR
atau menggunakan decoder diSINI
tapi jangan lupa untuk membuang "TAF" di awal dan "=" di akhir
dianabazz - 17/10/2012 10:12 AM
#411

▓▓▒▒ Radar Cuaca JABODETABEK dan Sekitarnya™ ▒▒▓▓
dianabazz - 18/10/2012 10:24 PM
#412

T A F O R



TAF WIII 180500Z 1806/1912 04010KT 9999 FEW023 TEMPO 1806/1812 FEW018CB SCT022 BECMG 1812/1814 25008KT 8000 SCT020 BECMG 1818/1820 3000 BR FEW020 BECMG 1902/1904 04010KT 9999 FEW023=



Bingung cara bacanya???bingungs
klik aja Cara membaca TAFOR
atau menggunakan decoder diSINI
tapi jangan lupa untuk membuang "TAF" di awal dan "=" di akhir
dianabazz - 18/10/2012 10:25 PM
#413

▓▓▒▒ Radar Cuaca JABODETABEK dan Sekitarnya™ ▒▒▓▓
Page 21 of 21 | ‹ First  < 16 17 18 19 20 21
Home > Kaskuser Regional > INDONESIA > JABAR, DKI & BANTEN > Depok > ▓▓▒▒ Radar Cuaca JABODETABEK dan Sekitarnya™ ▒▒▓▓